SHMÚ vydal meteorologické výstrahy na Vysoké teploty Zobraziť výstrahy

METAR

Letisková meteorologická správa METAR

Meteorologické informácie z ďalších profesionálnych meteorologických staníc SHMÚ zobrazené v tvare zodpovedajúcom pravidlám kódovania správ METAR sú uvedené v položke „METSYN

Informácie o správe METAR

25.06.2016 - 06:30 UTC

METAR LZIB 250630Z 09005KT 050V130 CAVOK 26/20 Q1014 NOSIG=
METAR LZKZ 250630Z 03004KT 9999 SCT037 26/18 Q1018 NOSIG=
METAR LZPP 250630Z 09006KT 050V130 CAVOK 29/20 Q1015=
METAR LZSL 250630Z 02004KT 340V060 CAVOK 25/17 Q1017=
METAR LZTT 250630Z 35005KT CAVOK 22/16 Q1020 NOSIG=
METAR LZZI 250630Z 11005KT 080V150 CAVOK 24/19 Q1017=

25.06.2016 - 06:00 UTC

METAR LZIB 250600Z 06007KT CAVOK 25/20 Q1014 NOSIG=
METAR LZKZ 250600Z 02007KT 9999 FEW035CB 26/17 Q1017 TEMPO TSRA=
METAR LZPP 250600Z 04004KT 340V120 CAVOK 27/20 Q1015=
METAR LZSL 250600Z 01007KT CAVOK 24/17 Q1018=
METAR LZTT 250600Z VRB02KT CAVOK 23/14 Q1020 NOSIG=
METAR LZZI 250600Z 09006KT 060V120 9999 FEW030 22/18 Q1017=

25.06.2016 - 06:00 UTC

METAR LZMC 250600Z 10008KT CAVOK 27/18 Q1014=
METAR LZPW 250600Z VRB02KT 9999 SCT026 24/18 Q1018=

skok na menu ↑


skok na začiatok stránky ↑